Main page
METAR-TAF:

METAR-TAF

Airports :

Oswego County Airport

Fulton, New York, United States

latitude: 43-21-03N, longitude: 076-23-17W, elevation: 476 ft

Current weather observation

The report was made 31 minutes ago, at 23:27 UTC
Wind 13 mph from the West/Northwest
Temperature 32°F
Humidity 74%
Pressure 30.03 in. Hg
Visibility: 9 miles
Scattered clouds at a height of 2300 ft
Scattered clouds at a height of 3000 ft
Overcast at a height of 3500 ft
light snow

METAR: KFZY 102327Z AUTO 30011KT 9SM -SN SCT023 SCT030 OVC035 00/M04 A3003 RMK AO2 P0000 T00001039

Time: 18:58 (23:58 UTC)


TAF: missing

Weather observations and forecasts of more than 4000 airports (METAR and TAF reports).

The available stations are represented by yellow and red dots on the map.

Hover mouse over dot to see the name of the station.

Then click to see weather observations and forecasts.

To change the map : click on the green buttons with a black cross to zoom in, on the green button with a dash to zoom out, or on the green arrows for adjacent maps.


METAR-TAF: